createdAt,value
2023-03-14T00:04:26.456Z,11.27
2023-03-14T00:09:27.291Z,11.50
2023-03-14T00:14:28.087Z,9.90
2023-03-14T00:19:28.919Z,12.43
2023-03-14T00:24:29.700Z,11.38
2023-03-14T00:29:30.471Z,12.50
2023-03-14T00:34:32.227Z,14.20
2023-03-14T00:39:34.927Z,13.02
2023-03-14T00:44:35.834Z,13.60
2023-03-14T00:49:43.525Z,9.00
2023-03-14T00:54:44.469Z,14.10
2023-03-14T00:59:45.531Z,11.43
2023-03-14T01:04:49.019Z,10.65
2023-03-14T01:09:52.353Z,15.45
2023-03-14T01:14:53.114Z,12.00
2023-03-14T01:19:54.048Z,13.38
2023-03-14T01:24:55.420Z,16.58
2023-03-14T01:29:56.305Z,17.67
2023-03-14T01:34:57.355Z,15.35
2023-03-14T01:39:58.458Z,10.68
2023-03-14T01:45:01.351Z,11.48
2023-03-14T01:50:11.096Z,12.35
2023-03-14T01:55:17.713Z,11.90
2023-03-14T02:00:22.619Z,5.37
2023-03-14T02:05:28.921Z,6.55
2023-03-14T02:10:43.454Z,15.10
2023-03-14T02:15:45.120Z,11.32
2023-03-14T02:21:50.230Z,8.35
2023-03-14T02:30:27.058Z,6.37
2023-03-14T02:35:31.730Z,10.65
2023-03-14T02:40:32.771Z,9.82
2023-03-14T02:45:38.047Z,12.18
2023-03-14T02:50:39.911Z,6.50
2023-03-14T02:55:45.250Z,8.32
2023-03-14T03:00:46.691Z,12.27
2023-03-14T03:05:52.102Z,9.75
2023-03-14T03:10:53.638Z,8.18
2023-03-14T03:15:54.600Z,13.05
2023-03-14T03:20:55.471Z,5.37
2023-03-14T03:25:57.231Z,12.85
2023-03-14T03:30:58.136Z,7.22
2023-03-14T03:35:59.452Z,13.45
2023-03-14T03:41:08.346Z,12.37
2023-03-14T03:46:09.592Z,11.45
2023-03-14T03:51:15.386Z,8.52
2023-03-14T03:56:16.895Z,9.55
2023-03-14T04:01:18.722Z,9.80
2023-03-14T04:06:21.699Z,23.05
2023-03-14T04:11:24.418Z,6.97
2023-03-14T04:16:49.854Z,8.70
2023-03-14T04:21:53.473Z,7.75
2023-03-14T04:26:55.831Z,8.07
2023-03-14T04:31:56.877Z,7.43
2023-03-14T04:36:58.300Z,5.35
2023-03-14T04:42:06.175Z,7.20
2023-03-14T04:47:07.492Z,6.03
2023-03-14T04:52:09.081Z,6.95
2023-03-14T04:57:11.185Z,8.10
2023-03-14T05:02:13.060Z,6.43
2023-03-14T05:07:29.363Z,6.68
2023-03-14T05:12:44.118Z,5.07
2023-03-14T05:18:03.792Z,2.03
2023-03-14T05:24:09.167Z,3.67
2023-03-14T05:29:28.278Z,5.05
2023-03-14T05:34:40.679Z,7.97
2023-03-14T05:40:00.137Z,6.45
2023-03-14T05:45:16.822Z,5.90
2023-03-14T05:50:30.784Z,6.07
2023-03-14T05:55:55.973Z,6.80
2023-03-14T06:01:14.856Z,3.17
2023-03-14T06:06:28.300Z,4.70
2023-03-14T06:11:30.129Z,2.58
2023-03-14T06:16:32.402Z,4.37
2023-03-14T06:21:33.787Z,5.65
2023-03-14T06:26:35.043Z,5.07
2023-03-14T06:31:36.157Z,3.75
2023-03-14T06:36:39.064Z,6.60
2023-03-14T06:41:39.966Z,5.60
2023-03-14T06:46:41.850Z,4.45
2023-03-14T06:51:42.795Z,6.45
2023-03-14T06:56:44.607Z,5.53
2023-03-14T07:01:45.857Z,5.85
2023-03-14T07:06:47.840Z,3.92
2023-03-14T07:11:48.794Z,7.53
2023-03-14T07:16:50.615Z,6.12
2023-03-14T07:21:52.940Z,4.18
2023-03-14T07:26:56.783Z,2.97
2023-03-14T07:31:58.030Z,4.78
2023-03-14T07:36:59.055Z,5.15
2023-03-14T07:42:01.078Z,5.25
2023-03-14T07:47:20.849Z,5.72
2023-03-14T07:52:21.688Z,4.93
2023-03-14T07:57:24.209Z,3.08
2023-03-14T08:02:25.252Z,3.33
2023-03-14T08:07:26.108Z,2.58
2023-03-14T08:12:26.906Z,3.35
2023-03-14T08:17:28.856Z,2.33
2023-03-14T08:22:29.845Z,4.28
2023-03-14T08:27:30.618Z,3.78
2023-03-14T08:32:32.360Z,3.45
2023-03-14T08:37:35.008Z,3.75
2023-03-14T08:42:40.301Z,2.45
2023-03-14T08:47:41.098Z,2.95
2023-03-14T08:52:42.459Z,2.37
2023-03-14T08:57:43.364Z,4.10
2023-03-14T09:02:44.601Z,5.30
2023-03-14T09:07:45.455Z,2.33
2023-03-14T09:12:46.404Z,1.77
2023-03-14T09:17:47.261Z,4.00
2023-03-14T09:22:48.401Z,0.60
2023-03-14T09:27:49.162Z,0.25
2023-03-14T09:32:50.526Z,2.70
2023-03-14T09:37:51.676Z,1.20
2023-03-14T09:42:54.790Z,0.93
2023-03-14T09:53:07.082Z,0.40
2023-03-14T09:58:14.734Z,1.58
2023-03-14T10:03:36.076Z,1.20
2023-03-14T10:08:40.615Z,3.87
2023-03-14T10:17:19.969Z,2.00
2023-03-14T10:22:22.075Z,1.15
2023-03-14T10:27:34.351Z,0.55
2023-03-14T10:32:38.538Z,1.48
2023-03-14T10:37:54.647Z,0.70
2023-03-14T10:42:55.953Z,2.78
2023-03-14T10:47:59.547Z,0.43
2023-03-14T10:53:06.593Z,1.17
2023-03-14T10:58:25.043Z,1.17
2023-03-14T11:03:29.124Z,0.10
2023-03-14T11:12:10.953Z,0.20
2023-03-14T11:17:26.044Z,0.10
2023-03-14T11:23:14.709Z,0.20
2023-03-14T11:28:51.380Z,0.10
2023-03-14T11:34:16.112Z,0.57
2023-03-14T11:39:19.212Z,0.93
2023-03-14T11:44:26.112Z,0.88
2023-03-14T11:50:58.168Z,1.55
2023-03-14T11:55:59.022Z,0.88
2023-03-14T12:01:08.441Z,0.32
2023-03-14T12:06:40.871Z,0.82
2023-03-14T12:11:56.690Z,0.30
2023-03-14T12:17:43.701Z,0.45
2023-03-14T12:22:48.286Z,0.82
2023-03-14T12:28:04.461Z,0.30
2023-03-14T12:33:38.680Z,0.40
2023-03-14T12:39:06.149Z,0.62
2023-03-14T12:44:45.184Z,11.15
2023-03-14T12:49:53.387Z,5.65
2023-03-14T12:55:07.070Z,2.17
2023-03-14T13:00:22.386Z,6.12
2023-03-14T13:05:26.526Z,4.15
2023-03-14T13:10:37.228Z,6.25
2023-03-14T13:15:46.101Z,2.07
2023-03-14T13:20:59.596Z,2.67
2023-03-14T13:26:01.663Z,2.67
2023-03-14T13:31:03.599Z,2.97
2023-03-14T13:36:05.924Z,4.25
2023-03-14T13:41:08.045Z,3.43
2023-03-14T13:46:25.972Z,3.17
2023-03-14T13:51:31.608Z,5.28
2023-03-14T13:56:33.122Z,3.40
2023-03-14T14:01:37.713Z,3.22
2023-03-14T14:06:47.002Z,5.70
2023-03-14T14:12:16.969Z,5.10
2023-03-14T14:17:26.782Z,2.90
2023-03-14T14:22:27.886Z,3.47
2023-03-14T14:27:41.370Z,5.32
2023-03-14T14:32:42.279Z,5.97
2023-03-14T14:37:44.824Z,3.92
2023-03-14T14:42:45.815Z,9.63
2023-03-14T14:47:55.436Z,3.70
2023-03-14T14:52:58.313Z,3.70
2023-03-14T14:59:00.673Z,3.50
2023-03-14T15:04:02.303Z,9.73
2023-03-14T15:09:03.327Z,5.05
2023-03-14T15:14:04.268Z,3.12
2023-03-14T15:19:25.406Z,1.87
2023-03-14T15:24:27.210Z,7.25
2023-03-14T15:29:29.501Z,5.12
2023-03-14T15:34:31.156Z,3.65
2023-03-14T15:39:31.943Z,8.13
2023-03-14T15:44:32.733Z,8.02
2023-03-14T15:49:33.693Z,5.03
2023-03-14T15:54:35.424Z,4.18
2023-03-14T15:59:36.351Z,8.55
2023-03-14T16:04:37.413Z,7.20
2023-03-14T16:09:38.327Z,4.68
2023-03-14T16:14:42.918Z,13.05
2023-03-14T16:19:43.854Z,7.32
2023-03-14T16:24:44.944Z,8.88
2023-03-14T16:29:47.907Z,5.93
2023-03-14T16:34:48.655Z,6.78
2023-03-14T16:40:10.311Z,10.95
2023-03-14T16:45:12.344Z,4.72
2023-03-14T16:50:13.349Z,10.60
2023-03-14T16:55:14.197Z,10.48
2023-03-14T17:00:15.845Z,3.87
2023-03-14T17:05:16.733Z,8.95
2023-03-14T17:10:17.940Z,5.12
2023-03-14T17:15:18.720Z,4.45
2023-03-14T17:20:19.894Z,3.83
2023-03-14T17:25:20.821Z,8.98
2023-03-14T17:30:21.704Z,12.77
2023-03-14T17:35:22.633Z,1.70
2023-03-14T17:40:23.825Z,0.35
2023-03-14T17:45:24.701Z,1.08
2023-03-14T17:50:25.741Z,2.35
2023-03-14T17:55:26.622Z,15.90
2023-03-14T18:00:27.650Z,23.38
2023-03-14T18:05:28.461Z,10.52
2023-03-14T18:10:29.307Z,7.53
2023-03-14T18:15:32.988Z,10.90
2023-03-14T18:20:34.088Z,10.95
2023-03-14T18:25:35.110Z,9.73
2023-03-14T18:30:36.061Z,15.80
2023-03-14T18:35:36.956Z,12.23
2023-03-14T18:40:37.819Z,10.57
2023-03-14T18:45:38.836Z,14.00
2023-03-14T18:50:40.848Z,10.20
2023-03-14T18:55:41.829Z,12.00
2023-03-14T19:00:43.141Z,10.43
2023-03-14T19:05:44.067Z,9.52
2023-03-14T19:10:45.046Z,12.75
2023-03-14T19:15:46.008Z,10.20
2023-03-14T19:20:59.484Z,11.70
2023-03-14T19:31:04.079Z,10.82
2023-03-14T19:36:05.676Z,39.88
2023-03-14T19:41:06.479Z,16.25
2023-03-14T19:46:07.368Z,27.23
2023-03-14T19:51:08.916Z,11.10
2023-03-14T19:56:10.795Z,16.27
2023-03-14T20:01:11.994Z,18.52
2023-03-14T20:06:12.895Z,11.60
2023-03-14T20:11:13.984Z,20.27
2023-03-14T20:16:15.127Z,9.88
2023-03-14T20:21:16.232Z,10.30
2023-03-14T20:26:17.017Z,10.20
2023-03-14T20:31:18.023Z,11.88
2023-03-14T20:36:18.940Z,13.13
2023-03-14T20:41:19.792Z,5.85
2023-03-14T20:46:20.647Z,10.10
2023-03-14T20:51:21.563Z,16.08
2023-03-14T20:56:22.357Z,18.70
2023-03-14T21:01:23.332Z,17.70
2023-03-14T21:06:25.027Z,17.90
2023-03-14T21:11:26.001Z,9.27
2023-03-14T21:16:26.945Z,10.32
2023-03-14T21:21:27.807Z,7.05
2023-03-14T21:26:28.862Z,10.70
2023-03-14T21:31:32.766Z,9.45
2023-03-14T21:36:33.745Z,19.50
2023-03-14T21:41:34.539Z,17.40
2023-03-14T21:46:35.587Z,16.70
2023-03-14T21:51:36.480Z,19.35
2023-03-14T21:56:37.409Z,16.73
2023-03-14T22:01:38.494Z,23.48
2023-03-14T22:06:39.333Z,12.18
2023-03-14T22:11:40.677Z,13.13
2023-03-14T22:16:41.422Z,14.98
2023-03-14T22:21:42.368Z,14.10
2023-03-14T22:26:43.124Z,22.73
2023-03-14T22:31:44.319Z,33.08
2023-03-14T22:36:45.106Z,28.67
2023-03-14T22:41:45.884Z,22.95
2023-03-14T22:46:46.625Z,22.33
2023-03-14T22:51:47.527Z,15.88
2023-03-14T22:56:48.282Z,17.85
2023-03-14T23:01:49.117Z,17.98
2023-03-14T23:06:49.899Z,11.02
2023-03-14T23:11:51.228Z,14.00
2023-03-14T23:16:55.065Z,14.02
2023-03-14T23:21:55.979Z,15.38
2023-03-14T23:26:56.875Z,16.95
2023-03-14T23:31:57.711Z,19.98
2023-03-14T23:36:58.661Z,13.57
2023-03-14T23:41:59.529Z,11.00
2023-03-14T23:47:00.856Z,14.05
2023-03-14T23:52:01.717Z,17.83
2023-03-14T23:57:04.576Z,14.45
